Airfield :
LOGIN :

Register | Disclaimer

   EN    FR    IT 

 










Legend :    VFR   Marginal VFR   IFR   Intensive IFR   Very Intensive IFR
Visi :
Ceiling :
>= 8 km
>= 3000ft
5 to 8 km
1000 to 3000 ft
1500m to 5 km
500 to 1000 ft
800 to 1500m
200 to 500 ft
< 800m
< 200 ft
Symbols :   Thunderstorms  Fog  Heavy snow  Heavy precipitations  Wind > 20 kt
SIGMETs :     Misc.  Thunderstorms  Icing  Turbulence  Mountain Waves  Volcanic Ashes






- Airport Elevation : 312 ft
- IATA code : SAW


LTFJ - Sabiha Gokcen

CURRENT METAR :
  • 090550Z 23012KT 9999 BKN037 11/08 Q1016 NOSIG RMK RWY24 24015KT

EXPIRED METARs :
  • 090520Z 24011KT 9999 BKN040 11/08 Q1016 NOSIG RMK RWY24 25012KT
  • 090450Z 23013KT 9999 BKN040 10/08 Q1016 NOSIG RMK RWY24 24010KT
  • 090420Z 24012KT 9999 BKN040 10/08 Q1016 NOSIG
  • 090350Z 23014KT 9999 BKN040 10/08 Q1015 NOSIG RMK RWY24 24013KT
  • 090320Z 23010KT 9999 FEW013 BKN030 10/09 Q1015 NOSIG RMK RWY24 23008KT

TAF TAF LTFJ
Valid from the 09 at 06:00 until the 10 at 06:00 UTC


090440Z 0906/1006 23013KT 9999 SCT040
BECMG 0906/0908 CAVOK
TEMPO 0910/0913 23016G26KT
BECMG 0918/0921 VRB02KT



MET'MAP, your aeronautical weather chart ! - Copyright ORBIFLY December 2007 - Disclaimer

ORBIFLY MET'MAP TEAM :

Programming & Development : Alexandra Zaïnal
Concept & original design : Baudouin d'Aumeries
Assistance for programming : Marc-Olivier Méhu
Technical & hardware support : Manuel Goepfert

Contact : metmap@orbifly.com




SOURCES & CREDITS :

   NOAA